Time;durP1;ratioP1;P1;durP2;ratioP2;P2;SDS_P1;SDS_P2;PMS_P1;PMS_P2;Temp;Humidity;BMP_temperature;BMP_pressure;BME280_temperature;BME280_humidity;BME280_pressure;Samples;Min_cycle;Max_cycle;Signal;HPM_P1;HPM_P2
2022/01/05 00:02:50;;;;;;;9.93;6.67;;;;;;;5.64;100.00;98571.41;5106971;57;1136940;-68
2022/01/05 00:07:55;;;;;;;8.07;4.93;;;;;;;5.62;100.00;98578.10;5113415;57;1134774;-71
2022/01/05 00:13:03;;;;;;;4.67;3.97;;;;;;;5.51;100.00;98566.88;5011042;58;1134786;-67
2022/01/05 00:18:09;;;;;;;5.93;4.27;;;;;;;5.51;100.00;98593.92;4989758;58;1135072;-71
2022/01/05 00:23:15;;;;;;;8.00;4.37;;;;;;;5.45;100.00;98591.03;4989102;58;1134905;-71
2022/01/05 00:28:21;;;;;;;9.43;3.67;;;;;;;5.35;100.00;98609.33;5000049;58;1135065;-71
2022/01/05 00:33:28;;;;;;;4.17;3.10;;;;;;;5.25;100.00;98618.48;5005772;58;1134777;-69
2022/01/05 00:38:34;;;;;;;6.93;3.60;;;;;;;5.18;100.00;98627.84;5029844;58;1134828;-71
2022/01/05 00:43:40;;;;;;;5.33;3.03;;;;;;;5.12;100.00;98625.73;4976749;58;1134792;-72
2022/01/05 00:48:46;;;;;;;10.50;4.43;;;;;;;5.05;100.00;98628.99;4988494;58;1135252;-73
2022/01/05 00:53:52;;;;;;;7.63;4.43;;;;;;;5.02;100.00;98626.66;4946650;58;1136984;-73
2022/01/05 00:58:58;;;;;;;4.67;2.33;;;;;;;4.99;100.00;98632.98;4960538;59;1134905;-69
2022/01/05 01:04:04;;;;;;;4.07;2.07;;;;;;;4.91;100.00;98628.37;4977354;58;1134872;-72
2022/01/05 01:09:10;;;;;;;4.37;1.73;;;;;;;4.85;100.00;98641.17;4952877;59;1134929;-71
2022/01/05 01:14:16;;;;;;;5.47;1.30;;;;;;;4.77;100.00;98647.52;4960761;59;1135075;-70
2022/01/05 01:19:22;;;;;;;1.80;1.20;;;;;;;4.65;100.00;98656.41;4967939;58;1132795;-66
2022/01/05 01:24:28;;;;;;;1.33;1.10;;;;;;;4.54;100.00;98659.44;4960296;59;1132801;-66
2022/01/05 01:29:33;;;;;;;0.83;0.80;;;;;;;4.46;100.00;98658.39;4960401;59;1132847;-74
2022/01/05 01:34:40;;;;;;;2.77;0.70;;;;;;;4.41;100.00;98666.64;4943095;58;1136926;-71
2022/01/05 01:39:46;;;;;;;2.77;0.80;;;;;;;4.35;100.00;98685.45;4890822;58;1134771;-70
2022/01/05 01:44:52;;;;;;;3.25;1.52;;;;;;;4.30;100.00;98695.45;4890960;60;1137115;-68
2022/01/05 01:49:58;;;;;;;3.45;0.60;;;;;;;4.23;100.00;98700.84;4890874;58;1134782;-73
2022/01/05 01:55:07;;;;;;;3.67;0.97;;;;;;;4.15;100.00;98709.29;4890561;60;1136889;-71
2022/01/05 02:00:15;;;;;;;2.77;0.50;;;;;;;4.06;100.00;98698.27;4890516;60;1136966;-67
2022/01/05 02:05:21;;;;;;;3.83;0.80;;;;;;;3.96;100.00;98701.27;4890838;58;1134982;-67
2022/01/05 02:10:27;;;;;;;2.77;0.73;;;;;;;3.89;100.00;98704.84;4890766;60;1134835;-72
2022/01/05 02:15:33;;;;;;;5.90;0.73;;;;;;;3.88;100.00;98707.09;4890095;60;1136942;-71
2022/01/05 02:20:39;;;;;;;2.60;0.90;;;;;;;3.84;100.00;98721.83;4890012;60;1135032;-71
2022/01/05 02:25:44;;;;;;;7.37;2.97;;;;;;;3.81;100.00;98733.86;4890189;60;1135015;-70
2022/01/05 02:30:53;;;;;;;12.43;2.93;;;;;;;3.78;100.00;98733.63;4890149;60;1137009;-70
2022/01/05 02:35:59;;;;;;;13.67;3.50;;;;;;;3.77;100.00;98725.42;4928973;59;1137215;-72
2022/01/05 02:41:11;;;;;;;13.27;4.10;;;;;;;3.80;100.00;98719.13;5004609;59;1137344;-66
2022/01/05 02:46:23;;;;;;;6.33;2.50;;;;;;;3.85;100.00;98711.25;5004393;58;1139070;-72
2022/01/05 02:51:29;;;;;;;3.93;3.33;;;;;;;3.86;100.00;98705.07;5004478;59;1134853;-69
2022/01/05 02:56:35;;;;;;;6.23;2.40;;;;;;;3.87;100.00;98711.13;5004377;59;1134862;-71
2022/01/05 03:01:40;;;;;;;9.17;3.77;;;;;;;3.91;100.00;98713.04;5004441;58;1136937;-70
2022/01/05 03:06:46;;;;;;;15.07;4.60;;;;;;;3.89;100.00;98705.31;5004492;59;1135134;-71
2022/01/05 03:11:53;;;;;;;3.83;2.00;;;;;;;3.91;100.00;98715.66;5119371;57;1136933;-67
2022/01/05 03:16:59;;;;;;;5.78;1.80;;;;;;;3.93;100.00;98717.20;5169409;57;1136867;-69
2022/01/05 03:22:04;;;;;;;6.20;2.80;;;;;;;3.93;100.00;98715.89;5170026;57;1135141;-67
2022/01/05 03:27:10;;;;;;;6.60;2.57;;;;;;;3.92;100.00;98727.30;5170052;57;1134811;-71
2022/01/05 03:32:16;;;;;;;5.40;3.60;;;;;;;3.96;100.00;98723.50;5169805;57;1137168;-69
2022/01/05 03:37:22;;;;;;;5.72;3.25;;;;;;;3.98;100.00;98731.20;5158892;57;1137162;-69
2022/01/05 03:42:27;;;;;;;5.83;2.40;;;;;;;3.97;100.00;98736.11;5117988;57;1134864;-70
2022/01/05 03:47:34;;;;;;;2.90;1.97;;;;;;;3.98;100.00;98709.80;5091365;57;1134925;-71
2022/01/05 03:52:39;;;;;;;3.17;2.47;;;;;;;4.06;100.00;98689.59;5061678;58;1137194;-68
2022/01/05 03:57:45;;;;;;;4.03;2.27;;;;;;;4.12;100.00;98693.03;5091215;57;1136974;-68
2022/01/05 04:02:51;;;;;;;5.13;2.50;;;;;;;4.12;100.00;98702.19;5091459;58;1134906;-71
2022/01/05 04:07:58;;;;;;;4.07;2.03;;;;;;;4.08;100.00;98698.98;5102081;57;1134913;-66
2022/01/05 04:13:04;;;;;;;3.33;1.90;;;;;;;4.09;100.00;98705.05;4972352;58;1134911;-70
2022/01/05 04:18:09;;;;;;;4.90;2.10;;;;;;;4.10;100.00;98702.78;4964432;59;1136997;-68
2022/01/05 04:23:15;;;;;;;4.13;1.80;;;;;;;4.14;100.00;98689.79;4964408;59;1137024;-72
2022/01/05 04:28:21;;;;;;;2.77;1.87;;;;;;;4.14;100.00;98700.25;4964257;59;1135110;-70
2022/01/05 04:33:27;;;;;;;3.53;1.97;;;;;;;4.10;100.00;98710.63;4964399;59;1134929;-68
2022/01/05 04:38:33;;;;;;;8.13;4.23;;;;;;;4.03;100.00;98720.73;4964226;59;1136968;-71
2022/01/05 04:43:39;;;;;;;10.27;3.80;;;;;;;4.01;100.00;98728.34;4964316;59;1134958;-69
2022/01/05 04:48:45;;;;;;;6.23;1.70;;;;;;;3.96;100.00;98726.12;4964406;59;1135140;-69
2022/01/05 04:53:51;;;;;;;3.00;1.67;;;;;;;3.94;100.00;98721.48;4964406;59;1135078;-68
2022/01/05 04:58:57;;;;;;;4.10;2.10;;;;;;;3.95;100.00;98723.62;4964370;59;1134942;-70
2022/01/05 05:04:03;;;;;;;3.93;1.80;;;;;;;3.87;100.00;98730.27;4964321;59;1132317;-66
2022/01/05 05:09:09;;;;;;;5.07;2.00;;;;;;;3.83;100.00;98735.85;4968741;59;1133047;-68
2022/01/05 05:14:15;;;;;;;8.13;2.00;;;;;;;3.80;100.00;98729.58;4991340;59;1134831;-71
2022/01/05 05:19:20;;;;;;;2.80;1.57;;;;;;;3.81;100.00;98721.63;4991300;59;1134882;-70
2022/01/05 05:24:26;;;;;;;11.30;4.30;;;;;;;3.78;100.00;98725.78;4991658;58;1132917;-71
2022/01/05 05:29:32;;;;;;;9.73;5.37;;;;;;;3.76;100.00;98726.84;4991316;59;1134908;-72
2022/01/05 05:34:38;;;;;;;9.18;3.90;;;;;;;3.77;100.00;98732.43;4991231;59;1134801;-68
2022/01/05 05:39:45;;;;;;;15.73;5.80;;;;;;;3.76;100.00;98734.21;4991452;59;1133020;-73
2022/01/05 05:44:51;;;;;;;13.17;6.13;;;;;;;3.75;100.00;98726.02;4992124;58;1135051;-71
2022/01/05 05:49:57;;;;;;;2.25;1.37;;;;;;;3.78;100.00;98733.63;4991788;58;1136879;-68
2022/01/05 05:55:04;;;;;;;7.43;2.20;;;;;;;3.80;100.00;98743.96;4992045;58;1132746;-72
2022/01/05 06:00:11;;;;;;;5.90;1.60;;;;;;;3.76;100.00;98734.69;4991860;59;1132785;-68
2022/01/05 06:05:17;;;;;;;2.97;1.43;;;;;;;3.80;100.00;98734.34;4987902;58;1134784;-71
2022/01/05 06:10:23;;;;;;;9.00;2.23;;;;;;;3.84;100.00;98741.44;5025941;58;1130687;-72
2022/01/05 06:15:29;;;;;;;11.00;2.47;;;;;;;3.84;100.00;98751.91;5062121;58;1130934;-68
2022/01/05 06:20:35;;;;;;;5.17;2.40;;;;;;;3.84;100.00;98751.42;5111323;58;21550;-71
2022/01/05 06:25:41;;;;;;;5.83;3.13;;;;;;;3.82;100.00;98742.87;5102562;58;1132759;-72
2022/01/05 06:30:48;;;;;;;15.40;6.30;;;;;;;3.77;100.00;98754.18;5097352;58;1135004;-72
2022/01/05 06:35:54;;;;;;;33.92;8.88;;;;;;;3.79;100.00;98748.83;5102520;57;1138973;-70
2022/01/05 06:40:59;;;;;;;18.67;8.03;;;;;;;3.78;100.00;98761.55;5117928;57;1139100;-68
2022/01/05 06:46:05;;;;;;;16.83;7.77;;;;;;;3.74;100.00;98762.73;5011486;58;1137139;-67
2022/01/05 06:51:12;;;;;;;13.60;5.72;;;;;;;3.73;100.00;98776.75;5003632;58;1136841;-71
2022/01/05 06:56:18;;;;;;;26.27;10.43;;;;;;;3.73;100.00;98784.59;5044160;58;1136922;-72
2022/01/05 07:01:24;;;;;;;24.53;7.87;;;;;;;3.69;100.00;98787.91;5033267;58;1139219;-69
2022/01/05 07:06:29;;;;;;;9.10;4.77;;;;;;;3.66;100.00;98800.41;4980828;59;1137170;-74
2022/01/05 07:11:35;;;;;;;10.77;3.47;;;;;;;3.67;100.00;98811.20;5080313;57;1134824;-71
2022/01/05 07:16:41;;;;;;;6.43;2.63;;;;;;;3.56;100.00;98816.42;5034710;57;1137160;-68
2022/01/05 07:21:47;;;;;;;5.80;1.40;;;;;;;3.46;100.00;98817.59;4991428;58;1135089;-75
2022/01/05 07:26:53;;;;;;;3.07;1.07;;;;;;;3.30;100.00;98808.77;4991429;58;1134830;-71
2022/01/05 07:31:58;;;;;;;2.83;1.83;;;;;;;3.20;100.00;98815.65;5013151;58;1134913;-75
2022/01/05 07:37:05;;;;;;;8.77;2.20;;;;;;;3.09;100.00;98820.34;5047482;58;1135007;-77
2022/01/05 07:42:11;;;;;;;3.00;2.03;;;;;;;3.00;100.00;98828.87;5041666;58;1135240;-72
2022/01/05 07:47:17;;;;;;;8.33;2.33;;;;;;;2.98;100.00;98822.09;5038369;58;1135259;-75
2022/01/05 07:52:23;;;;;;;17.70;4.17;;;;;;;2.93;100.00;98813.27;5047723;58;1134848;-72
2022/01/05 07:57:29;;;;;;;9.50;3.10;;;;;;;2.94;100.00;98811.02;5072257;58;1136909;-72
2022/01/05 08:02:34;;;;;;;5.83;2.77;;;;;;;2.98;100.00;98821.61;5072199;58;1134815;-78
2022/01/05 08:07:40;;;;;;;3.63;2.10;;;;;;;3.00;100.00;98831.95;5072173;58;1134826;-71
2022/01/05 08:12:46;;;;;;;6.23;2.30;;;;;;;3.01;100.00;98837.06;5001788;58;1134806;-72
2022/01/05 08:17:52;;;;;;;7.00;2.30;;;;;;;2.93;100.00;98836.77;4999469;58;1135358;-70
2022/01/05 08:22:57;;;;;;;4.03;1.87;;;;;;;2.89;100.00;98838.44;4999622;58;1134643;-71
2022/01/05 08:28:03;;;;;;;10.53;3.80;;;;;;;2.78;100.00;98847.03;4999594;58;1135074;-76
2022/01/05 08:33:09;;;;;;;10.57;2.83;;;;;;;2.78;100.00;98825.67;4954703;58;1136882;-75
2022/01/05 08:38:16;;;;;;;8.40;3.10;;;;;;;2.80;100.00;98807.29;4946354;58;1137137;-71
2022/01/05 08:43:22;;;;;;;4.10;2.33;;;;;;;2.82;100.00;98804.94;4997950;58;1135099;-72
2022/01/05 08:48:29;;;;;;;6.37;2.47;;;;;;;2.91;100.00;98806.02;5022911;58;1135084;-68
2022/01/05 08:53:35;;;;;;;5.60;2.00;;;;;;;2.89;100.00;98793.58;5024951;58;1134853;-72
2022/01/05 08:58:42;;;;;;;7.87;3.03;;;;;;;2.92;100.00;98820.75;5022745;58;1134844;-70
2022/01/05 09:03:47;;;;;;;4.80;1.57;;;;;;;2.95;100.00;98816.61;4996669;58;1134928;-71
2022/01/05 09:08:53;;;;;;;3.57;2.00;;;;;;;2.99;100.00;98828.50;5022359;58;1134896;-73
2022/01/05 09:13:59;;;;;;;9.70;2.13;;;;;;;2.98;100.00;98823.39;4997086;58;1134804;-74
2022/01/05 09:19:05;;;;;;;9.10;3.20;;;;;;;3.00;100.00;98834.56;4996287;58;1134330;-72
2022/01/05 09:24:10;;;;;;;11.23;4.37;;;;;;;2.99;100.00;98844.17;4999372;58;1135282;-71
2022/01/05 09:29:17;;;;;;;11.50;3.77;;;;;;;2.99;100.00;98835.03;5041855;58;1137392;-76
2022/01/05 09:34:24;;;;;;;9.77;3.10;;;;;;;2.97;100.00;98843.45;5021261;58;1136895;-69
2022/01/05 09:44:54;;;;;;;16.20;3.60;;;;;;;2.94;100.00;98855.41;4982818;58;1135046;-74
2022/01/05 09:50:04;;;;;;;12.28;3.50;;;;;;;2.95;100.00;98856.25;4978702;58;1134874;-71
2022/01/05 09:55:12;;;;;;;14.30;3.13;;;;;;;2.95;100.00;98846.64;4982790;58;1134845;-74
2022/01/05 10:00:19;;;;;;;8.03;2.73;;;;;;;2.99;100.00;98855.92;4975036;58;1134577;-71
2022/01/05 10:05:25;;;;;;;10.37;3.57;;;;;;;2.97;100.00;98849.14;5008251;58;1133027;-72
2022/01/05 10:10:31;;;;;;;13.10;3.30;;;;;;;2.97;100.00;98830.39;5010928;58;1134837;-73
2022/01/05 10:15:37;;;;;;;39.30;9.47;;;;;;;2.97;100.00;98830.39;5056433;58;1134695;-69
2022/01/05 10:21:05;;;;;;;95.85;20.40;;;;;;;3.03;100.00;98834.34;5056427;58;1135065;-73
2022/01/05 10:26:32;;;;;;;26.73;6.20;;;;;;;3.13;100.00;98837.93;5017281;58;1136959;-70
2022/01/05 10:31:44;;;;;;;26.20;5.43;;;;;;;3.24;100.00;98830.13;4959531;58;1137226;-73
2022/01/05 10:36:54;;;;;;;11.73;3.50;;;;;;;3.33;100.00;98829.93;4966973;58;1136905;-72
2022/01/05 10:42:12;;;;;;;9.27;2.47;;;;;;;3.42;100.00;98839.67;4962744;58;1137038;-73
2022/01/05 10:47:18;;;;;;;16.07;3.00;;;;;;;3.48;100.00;98838.76;4968538;58;1134972;-72
2022/01/05 10:52:34;;;;;;;19.97;3.40;;;;;;;3.55;100.00;98849.56;4889776;59;1137360;-70
2022/01/05 10:58:03;;;;;;;12.70;2.17;;;;;;;3.54;100.00;98850.51;4904162;59;1136900;-73
2022/01/05 11:03:39;;;;;;;5.67;1.67;;;;;;;3.48;100.00;98843.15;4892945;59;1137252;-69
2022/01/05 11:09:09;;;;;;;14.55;2.37;;;;;;;3.40;100.00;98831.12;4875271;60;1134774;-74
2022/01/05 11:14:17;;;;;;;9.07;2.20;;;;;;;3.35;100.00;98828.04;4903921;59;1136936;-71
2022/01/05 11:19:36;;;;;;;17.98;3.37;;;;;;;3.36;100.00;98843.57;4885752;59;1134871;-73
2022/01/05 11:24:56;;;;;;;22.30;3.73;;;;;;;3.40;100.00;98841.09;4907076;59;1136923;-71
2022/01/05 11:30:00;;;;;;;12.23;2.67;;;;;;;3.43;100.00;98837.42;4912556;59;1134839;-72
2022/01/05 11:35:08;;;;;;;11.87;3.80;;;;;;;3.44;100.00;98829.47;4906719;58;1134910;-70
2022/01/05 11:40:14;;;;;;;7.83;1.57;;;;;;;3.49;100.00;98814.29;4908134;58;1135145;-72
2022/01/05 11:45:34;;;;;;;11.20;2.63;;;;;;;3.45;100.00;98827.70;4891819;59;1133000;-70
2022/01/05 11:50:46;;;;;;;13.07;2.60;;;;;;;3.43;100.00;98823.89;4805216;60;1135021;-70
2022/01/05 11:56:05;;;;;;;8.58;2.85;;;;;;;3.45;100.00;98823.77;4792459;61;1134857;-73
2022/01/05 12:01:21;;;;;;;9.53;3.07;;;;;;;3.47;100.00;98833.64;4799882;61;1132795;-75
2022/01/05 12:06:31;;;;;;;12.20;2.57;;;;;;;3.45;100.00;98841.59;4829254;60;1132930;-71
2022/01/05 12:11:44;;;;;;;14.27;1.70;;;;;;;3.48;100.00;98843.98;4827280;61;1132751;-68
2022/01/05 12:17:12;;;;;;;43.40;10.93;;;;;;;3.49;100.00;98852.19;4787570;61;1136965;-75
2022/01/05 12:22:27;;;;;;;7.97;2.00;;;;;;;3.47;100.00;98859.30;4809054;61;1139182;-72
2022/01/05 12:27:51;;;;;;;9.07;2.70;;;;;;;3.42;100.00;98851.44;4905903;59;1134866;-72
2022/01/05 12:33:12;;;;;;;13.08;3.77;;;;;;;3.36;100.00;98857.95;4929144;59;1134868;-70
2022/01/05 12:38:37;;;;;;;13.97;4.27;;;;;;;3.36;100.00;98857.95;4919288;59;1136879;-71
2022/01/05 12:43:44;;;;;;;9.13;2.77;;;;;;;3.35;100.00;98862.84;4950706;59;1137277;-70
2022/01/05 12:48:55;;;;;;;9.93;2.80;;;;;;;3.33;100.00;98858.20;4874193;59;1135175;-77
2022/01/05 12:54:20;;;;;;;10.90;5.53;;;;;;;3.27;100.00;98858.64;4878249;59;1135128;-72
2022/01/05 12:59:35;;;;;;;8.33;2.17;;;;;;;3.27;100.00;98856.50;4948663;59;1137318;-74
2022/01/05 13:04:47;;;;;;;9.13;1.53;;;;;;;3.28;100.00;98854.25;4948597;59;1135104;-71
2022/01/05 13:10:04;;;;;;;6.20;1.97;;;;;;;3.27;100.00;98857.33;4948497;59;1135201;-72
2022/01/05 13:15:09;;;;;;;10.63;2.90;;;;;;;3.25;100.00;98858.39;4948329;59;1135160;-72
2022/01/05 13:20:15;;;;;;;7.87;1.80;;;;;;;3.26;100.00;98859.59;4944767;59;1136843;-73
2022/01/05 13:25:25;;;;;;;10.20;2.70;;;;;;;3.27;100.00;98865.17;4948514;59;1132697;-70
2022/01/05 13:30:33;;;;;;;10.23;2.80;;;;;;;3.25;100.00;98864.92;4946625;59;1134944;-68
2022/01/05 13:35:41;;;;;;;8.93;1.73;;;;;;;3.29;100.00;98867.67;4915369;59;1134889;-70
2022/01/05 13:40:52;;;;;;;6.37;2.10;;;;;;;3.25;100.00;98870.98;4876350;59;1132784;-69
2022/01/05 13:45:59;;;;;;;9.07;2.23;;;;;;;3.24;100.00;98865.86;4911401;59;1132868;-73
2022/01/05 13:51:07;;;;;;;14.15;4.10;;;;;;;3.24;100.00;98865.86;4967311;59;1132807;-71
2022/01/05 13:56:18;;;;;;;6.70;3.00;;;;;;;3.23;100.00;98874.17;5009146;58;1134848;-73
2022/01/05 14:01:33;;;;;;;14.03;5.07;;;;;;;3.21;100.00;98876.56;4961759;59;1132962;-71
2022/01/05 14:06:33;;;;;;;81.00;44.27;;;;;;;3.22;100.00;98891.27;4996692;58;1134824;-73
2022/01/05 14:11:39;;;;;;;53.17;30.27;;;;;;;3.21;100.00;98892.23;4984234;58;1136948;-72
2022/01/05 14:16:47;;;;;;;34.83;21.23;;;;;;;3.20;100.00;98895.32;4955414;59;1136986;-76
2022/01/05 14:22:03;;;;;;;31.35;15.63;;;;;;;3.20;100.00;98901.85;4965942;59;1136941;-74
2022/01/05 14:27:18;;;;;;;2.47;1.90;;;;;;;3.23;100.00;98904.69;4947295;59;1135199;-74
2022/01/05 14:32:29;;;;;;;18.75;4.00;;;;;;;3.21;100.00;98904.80;4949440;59;1134835;-77
2022/01/05 14:37:35;;;;;;;7.53;2.40;;;;;;;3.21;100.00;98903.99;4964046;58;1137104;-71
2022/01/05 14:42:45;;;;;;;17.00;4.37;;;;;;;3.20;100.00;98906.24;4941622;58;1135226;-70
2022/01/05 14:47:51;;;;;;;51.60;35.77;;;;;;;3.18;100.00;98928.56;4983039;57;1136825;-76
2022/01/05 14:53:00;;;;;;;101.37;41.23;;;;;;;3.19;100.00;98935.45;4997354;58;1138563;-73
2022/01/05 14:58:03;;;;;;;42.93;12.17;;;;;;;3.21;100.00;98928.81;4920818;59;1141442;-74
2022/01/05 15:03:10;;;;;;;34.50;13.40;;;;;;;3.22;100.00;98923.92;4959079;59;1139122;-76
2022/01/05 15:08:16;;;;;;;35.90;10.20;;;;;;;3.16;100.00;98910.85;4972307;59;1138933;-66
2022/01/05 15:13:22;;;;;;;27.47;8.63;;;;;;;3.17;100.00;98937.33;4990771;59;1138566;-77
2022/01/05 15:18:28;;;;;;;45.70;9.43;;;;;;;3.16;100.00;98944.34;4987130;59;1136907;-77
2022/01/05 15:23:35;;;;;;;587.97;178.50;;;;;;;3.14;100.00;98948.84;4949202;59;1137135;-71
2022/01/05 15:28:52;;;;;;;281.68;75.00;;;;;;;3.15;100.00;98945.28;4941598;58;1143186;-69
2022/01/05 15:33:56;;;;;;;159.30;40.33;;;;;;;3.12;100.00;98952.50;5105455;58;1141055;-76
2022/01/05 15:39:02;;;;;;;115.00;35.73;;;;;;;3.12;100.00;98958.55;5055353;58;1140972;-73
2022/01/05 15:44:08;;;;;;;153.40;60.00;;;;;;;3.11;100.00;98963.41;5007809;59;1141283;-73
2022/01/05 15:49:13;;;;;;;38.43;12.47;;;;;;;3.12;100.00;98974.23;5015055;59;1141351;-71
2022/01/05 15:54:19;;;;;;;19.10;5.93;;;;;;;3.08;100.00;98974.55;4977356;59;1139218;-73
2022/01/05 16:04:47;;;;;;;;;;;;;;;3.10;100.00;98993.56;4956084;59;1139094;-71
2022/01/05 16:09:52;;;;;;;;;;;;;;;3.08;100.00;98982.38;4906818;59;972394;-74
2022/01/05 16:14:59;;;;;;;32.23;6.57;;;;;;;3.06;100.00;98977.27;4984654;59;970046;-74
2022/01/05 16:20:09;;;;;;;21.27;5.67;;;;;;;3.02;100.00;98977.61;4958515;59;1135016;-73
2022/01/05 16:25:15;;;;;;;23.73;7.23;;;;;;;3.00;100.00;98979.50;4966746;59;1136906;-72
2022/01/05 16:30:21;;;;;;;28.70;6.90;;;;;;;3.00;100.00;98976.89;4966094;59;1136994;-74
2022/01/05 16:35:29;;;;;;;21.37;6.20;;;;;;;2.97;100.00;98974.02;4962484;59;1137057;-73
2022/01/05 16:40:37;;;;;;;12.40;4.10;;;;;;;2.97;100.00;98977.09;4945216;59;1136981;-74
2022/01/05 16:45:43;;;;;;;16.23;5.30;;;;;;;2.95;100.00;98974.59;4927258;59;1136978;-75
2022/01/05 16:50:49;;;;;;;66.30;19.10;;;;;;;2.96;100.00;98970.20;4899966;59;1136939;-71
2022/01/05 16:55:55;;;;;;;59.13;21.17;;;;;;;2.96;100.00;98969.73;4881890;59;1139004;-73
2022/01/05 17:01:01;;;;;;;19.53;4.83;;;;;;;2.95;100.00;98977.20;4919931;58;1139054;-74
2022/01/05 17:06:06;;;;;;;62.23;20.13;;;;;;;2.94;100.00;98977.31;4950147;58;1135124;-74
2022/01/05 17:11:13;;;;;;;38.37;12.57;;;;;;;2.94;100.00;98974.70;4928834;59;1136942;-73
2022/01/05 17:16:21;;;;;;;26.17;10.07;;;;;;;2.89;100.00;98967.21;4859986;60;1136956;-72
2022/01/05 17:21:27;;;;;;;64.00;19.27;;;;;;;2.92;100.00;98968.74;4910483;59;1137213;-71
2022/01/05 17:26:34;;;;;;;17.53;7.57;;;;;;;2.94;100.00;98968.17;4899405;59;1136994;-76
2022/01/05 17:31:42;;;;;;;160.77;90.67;;;;;;;2.90;100.00;98970.66;4889888;59;1134890;-71
2022/01/05 17:36:48;;;;;;;27.87;10.43;;;;;;;2.91;100.00;98979.66;4957712;58;1138886;-73
2022/01/05 17:41:53;;;;;;;48.03;14.60;;;;;;;2.89;100.00;98985.49;4958313;58;1137005;-72
2022/01/05 17:46:59;;;;;;;39.40;11.73;;;;;;;2.90;100.00;98985.86;4965298;58;1137010;-81
2022/01/05 17:52:06;;;;;;;78.97;25.30;;;;;;;2.90;100.00;98988.94;4993332;57;1137004;-71
2022/01/05 17:57:13;;;;;;;29.83;11.37;;;;;;;2.91;100.00;98991.41;4936622;58;1137203;-75
2022/01/05 18:02:19;;;;;;;27.63;9.80;;;;;;;2.93;100.00;98997.36;4825416;60;1136965;-77
2022/01/05 18:07:25;;;;;;;22.70;6.83;;;;;;;2.90;100.00;98987.63;4884725;60;1134891;-72
2022/01/05 18:12:32;;;;;;;79.37;24.73;;;;;;;2.91;100.00;98987.96;4945861;58;1134847;-78
2022/01/05 18:17:39;;;;;;;36.37;11.93;;;;;;;2.93;100.00;98973.02;4840182;60;1136856;-76
2022/01/05 18:22:45;;;;;;;28.60;11.50;;;;;;;2.91;100.00;98978.36;4881288;60;1137154;-72
2022/01/05 18:27:51;;;;;;;20.10;7.53;;;;;;;2.93;100.00;98976.47;4895494;60;1136955;-78
2022/01/05 18:32:57;;;;;;;14.90;5.22;;;;;;;2.91;100.00;98975.74;4870891;60;1132795;-75
2022/01/05 18:38:03;;;;;;;65.17;14.70;;;;;;;2.91;100.00;98974.91;4857376;60;1133005;-71
2022/01/05 18:43:09;;;;;;;70.37;33.77;;;;;;;2.92;100.00;98966.97;4825830;60;1139071;-77
2022/01/05 18:48:14;;;;;;;75.43;17.17;;;;;;;2.91;100.00;98966.60;4897110;60;1138939;-75
2022/01/05 18:53:22;;;;;;;25.80;7.87;;;;;;;2.93;100.00;98964.72;4910703;59;1139521;-80
2022/01/05 18:58:28;;;;;;;15.07;5.50;;;;;;;2.88;100.00;98966.84;4881755;59;1137077;-79
2022/01/05 19:03:33;;;;;;;51.70;18.77;;;;;;;2.88;100.00;98969.45;4909343;59;1136927;-76
2022/01/05 19:08:39;;;;;;;14.63;5.17;;;;;;;2.84;100.00;98971.91;4867784;59;1138959;-69
2022/01/05 19:13:47;;;;;;;5.90;3.23;;;;;;;2.82;100.00;98965.49;4898820;59;1136968;-77
2022/01/05 19:18:52;;;;;;;21.47;6.00;;;;;;;2.79;100.00;98955.73;4970186;59;1134797;-77
2022/01/05 19:23:58;;;;;;;14.77;6.97;;;;;;;2.77;100.00;98960.22;4874827;59;1136882;-84
2022/01/05 19:29:04;;;;;;;27.37;9.00;;;;;;;2.73;100.00;98970.07;4941482;59;1137156;-80
2022/01/05 19:34:11;;;;;;;23.67;11.47;;;;;;;2.70;100.00;98968.14;4765171;60;1136999;-69
2022/01/05 19:39:17;;;;;;;19.90;6.23;;;;;;;2.69;100.00;98965.16;4872912;59;1138912;-78
2022/01/05 19:44:23;;;;;;;11.80;5.17;;;;;;;2.64;100.00;98967.25;4948127;59;1137191;-72
2022/01/05 19:49:29;;;;;;;11.50;5.53;;;;;;;2.59;100.00;98966.76;4915999;59;1136853;-69
2022/01/05 19:54:37;;;;;;;10.47;5.43;;;;;;;2.52;100.00;98966.33;4960614;59;1136935;-78
2022/01/05 19:59:42;;;;;;;17.63;4.63;;;;;;;2.48;100.00;98970.92;4952542;58;1136916;-73
2022/01/05 20:04:50;;;;;;;15.23;6.27;;;;;;;2.42;100.00;98964.84;4955132;58;1136975;-73
2022/01/05 20:09:56;;;;;;;12.93;6.20;;;;;;;2.34;100.00;98968.91;4964247;58;1136923;-80
2022/01/05 20:15:02;;;;;;;8.90;4.77;;;;;;;2.25;100.00;98972.98;4957975;58;1136916;-81
2022/01/05 20:20:08;;;;;;;10.38;4.70;;;;;;;2.18;100.00;98969.11;4959782;59;1134846;-76
2022/01/05 20:25:15;;;;;;;20.63;7.27;;;;;;;2.15;100.00;98965.41;4963225;58;1137099;-78
2022/01/05 20:30:20;;;;;;;9.17;4.20;;;;;;;2.11;100.00;98971.32;4960611;58;1136318;-75
2022/01/05 20:35:26;;;;;;;9.00;5.03;;;;;;;2.10;100.00;98971.42;4964435;58;1134998;-75
2022/01/05 20:40:33;;;;;;;12.83;5.60;;;;;;;2.10;100.00;98968.34;4972770;58;1134992;-68
2022/01/05 20:45:39;;;;;;;8.67;4.30;;;;;;;2.13;100.00;98982.95;4951964;58;1137014;-78
2022/01/05 20:50:47;;;;;;;8.10;5.13;;;;;;;2.15;100.00;98977.14;4941302;58;1135048;-74
2022/01/05 20:55:52;;;;;;;12.17;5.47;;;;;;;2.16;100.00;98968.38;4994834;58;1134906;-69
2022/01/05 21:00:59;;;;;;;9.13;4.57;;;;;;;2.19;100.00;98966.88;4897648;59;1137178;-70
2022/01/05 21:06:04;;;;;;;14.77;6.30;;;;;;;2.23;100.00;98970.11;4944658;59;1135096;-71
2022/01/05 21:11:11;;;;;;;10.67;5.87;;;;;;;2.23;100.00;98970.11;4921816;59;1136999;-71
2022/01/05 21:16:19;;;;;;;5.93;3.13;;;;;;;2.22;100.00;98974.96;4933995;59;1136961;-72
2022/01/05 21:21:30;;;;;;;8.17;4.30;;;;;;;2.15;100.00;98986.73;4929132;59;1134788;-71
2022/01/05 21:26:36;;;;;;;7.80;2.80;;;;;;;2.09;100.00;98975.80;4932009;58;1134906;-69
2022/01/05 21:31:42;;;;;;;6.37;3.70;;;;;;;2.07;100.00;98973.76;4924459;58;1134813;-71
2022/01/05 21:36:48;;;;;;;5.07;3.20;;;;;;;2.14;100.00;98980.68;4939450;58;1134824;-69
2022/01/05 21:41:54;;;;;;;3.97;3.33;;;;;;;2.16;100.00;98981.41;4939705;59;1134803;-70
2022/01/05 21:46:59;;;;;;;5.60;4.07;;;;;;;2.19;100.00;98977.30;4928763;59;1135132;-70
2022/01/05 21:52:06;;;;;;;6.40;3.50;;;;;;;2.20;100.00;98981.59;4917905;59;1132686;-72
2022/01/05 21:57:12;;;;;;;10.10;3.40;;;;;;;2.24;100.00;98985.66;4912742;58;1132767;-73
2022/01/05 22:02:18;;;;;;;5.33;3.37;;;;;;;2.25;100.00;98989.94;4912825;59;1134732;-70
2022/01/05 22:07:24;;;;;;;7.10;3.47;;;;;;;2.27;100.00;98988.06;4890733;60;1133046;-72
2022/01/05 22:12:30;;;;;;;3.93;2.50;;;;;;;2.30;100.00;98998.27;4900964;59;1132715;-69
2022/01/05 22:17:36;;;;;;;3.27;2.20;;;;;;;2.33;100.00;99005.05;4946875;58;1132801;-72
2022/01/05 22:22:43;;;;;;;4.40;2.80;;;;;;;2.34;100.00;99011.48;4916591;58;1132818;-69
2022/01/05 22:27:48;;;;;;;4.77;2.57;;;;;;;2.34;100.00;99018.00;4923177;58;1132687;-69
2022/01/05 22:32:54;;;;;;;4.87;2.90;;;;;;;2.37;100.00;99023.48;4921918;59;1132764;-68
2022/01/05 22:37:59;;;;;;;2.63;2.37;;;;;;;2.39;100.00;99035.49;4926112;58;1132720;-70
2022/01/05 22:43:07;;;;;;;6.85;3.05;;;;;;;2.41;100.00;99040.14;4894152;59;1132783;-71
2022/01/05 22:48:13;;;;;;;5.93;3.47;;;;;;;2.45;100.00;99044.66;4890451;60;1132786;-70
2022/01/05 22:53:19;;;;;;;5.07;3.37;;;;;;;2.49;100.00;99053.95;4892089;58;1133283;-73
2022/01/05 22:58:25;;;;;;;8.23;3.40;;;;;;;2.50;100.00;99052.18;4963671;59;1132806;-69
2022/01/05 23:03:33;;;;;;;5.43;3.07;;;;;;;2.50;100.00;99050.88;4918895;59;1132938;-69
2022/01/05 23:08:39;;;;;;;8.13;2.87;;;;;;;2.52;100.00;99056.83;4916781;59;1132803;-73
2022/01/05 23:13:44;;;;;;;5.53;2.33;;;;;;;2.50;100.00;99052.18;4952514;59;1132710;-70
2022/01/05 23:18:50;;;;;;;4.83;2.90;;;;;;;2.48;100.00;99056.20;4974183;59;1133040;-69
2022/01/05 23:23:57;;;;;;;6.50;3.27;;;;;;;2.50;100.00;99053.48;4935832;59;1130748;-71
2022/01/05 23:29:03;;;;;;;6.47;3.00;;;;;;;2.53;100.00;99059.81;4929648;60;21213;-68
2022/01/05 23:34:09;;;;;;;4.70;2.37;;;;;;;2.58;100.00;99064.26;4912353;60;1130899;-71